Time;durP1;ratioP1;P1;durP2;ratioP2;P2;SDS_P1;SDS_P2;PMS_P1;PMS_P2;Temp;Humidity;BMP_temperature;BMP_pressure;BME280_temperature;BME280_humidity;BME280_pressure;Samples;Min_cycle;Max_cycle;Signal;HPM_P1;HPM_P2
2022/03/03 00:02:01;;;;;;;2.63;2.53;;;0.90;99.90;;;;;;5073670;28;20189;-78
2022/03/03 00:04:26;;;;;;;2.20;2.07;;;1.00;99.90;;;;;;5055655;28;20193;-76
2022/03/03 00:06:52;;;;;;;1.40;1.33;;;1.00;99.90;;;;;;5073294;28;20209;-77
2022/03/03 00:09:18;;;;;;;1.37;1.27;;;1.10;99.90;;;;;;5073732;28;20201;-77
2022/03/03 00:11:43;;;;;;;0.90;0.90;;;1.10;99.90;;;;;;5073054;28;20429;-77
2022/03/03 00:14:09;;;;;;;0.80;0.80;;;1.20;99.90;;;;;;5055483;28;20179;-77
2022/03/03 00:16:34;;;;;;;1.97;1.87;;;1.20;99.90;;;;;;5072972;28;20199;-77
2022/03/03 00:19:00;;;;;;;0.87;0.87;;;1.20;99.90;;;;;;5073555;28;20183;-78
2022/03/03 00:21:25;;;;;;;1.80;1.70;;;1.20;99.90;;;;;;5072979;28;20185;-76
2022/03/03 00:23:51;;;;;;;3.07;2.87;;;1.20;99.90;;;;;;5073246;28;20190;-77
2022/03/03 00:26:16;;;;;;;3.37;2.60;;;1.00;99.90;;;;;;5073272;28;20214;-77
2022/03/03 00:28:42;;;;;;;0.57;0.57;;;0.80;99.90;;;;;;5073294;28;20239;-77
2022/03/03 00:31:09;;;;;;;2.50;2.30;;;0.90;99.90;;;;;;5073090;28;20202;-77
2022/03/03 00:33:34;;;;;;;0.90;0.73;;;0.80;99.90;;;;;;5072731;28;20230;-75
2022/03/03 00:36:00;;;;;;;1.50;1.50;;;0.80;99.90;;;;;;5072694;28;20244;-77
2022/03/03 00:38:26;;;;;;;1.50;1.40;;;0.80;99.90;;;;;;5055043;28;20265;-76
2022/03/03 00:40:51;;;;;;;1.80;1.70;;;0.80;99.90;;;;;;5072841;28;20743;-76
2022/03/03 00:43:17;;;;;;;2.27;2.03;;;0.80;99.90;;;;;;5072598;28;20185;-76
2022/03/03 00:45:43;;;;;;;6.00;1.50;;;0.80;99.90;;;;;;5054887;28;20211;-77
2022/03/03 00:48:08;;;;;;;0.67;0.60;;;0.80;99.90;;;;;;5072659;28;20191;-77
2022/03/03 00:50:34;;;;;;;2.13;0.83;;;0.80;99.90;;;;;;5072515;28;20717;-77
2022/03/03 00:53:00;;;;;;;1.13;1.03;;;0.70;99.90;;;;;;5072549;28;20182;-77
2022/03/03 00:55:26;;;;;;;1.47;1.37;;;0.70;99.90;;;;;;5071984;28;20205;-77
2022/03/03 00:57:51;;;;;;;0.40;0.40;;;0.70;99.90;;;;;;5072819;28;20190;-77
2022/03/03 01:00:18;;;;;;;1.20;1.10;;;0.60;99.90;;;;;;5072210;28;20179;-77
2022/03/03 01:02:45;;;;;;;5.20;2.50;;;0.60;99.90;;;;;;5054204;28;20200;-77
2022/03/03 01:05:10;;;;;;;1.03;1.03;;;0.60;99.90;;;;;;5072042;28;20181;-76
2022/03/03 01:07:36;;;;;;;1.30;1.20;;;0.60;99.90;;;;;;5072288;28;20188;-77
2022/03/03 01:10:04;;;;;;;1.13;1.10;;;0.60;99.90;;;;;;5072488;28;20186;-76
2022/03/03 01:12:29;;;;;;;2.40;2.30;;;0.60;99.90;;;;;;5072213;28;20625;-77
2022/03/03 01:14:55;;;;;;;0.67;0.53;;;0.60;99.90;;;;;;5072141;28;20256;-77
2022/03/03 01:17:20;;;;;;;1.97;1.77;;;0.60;99.90;;;;;;5071864;28;20214;-77
2022/03/03 01:19:46;;;;;;;2.93;2.30;;;0.60;99.90;;;;;;5053954;28;20192;-78
2022/03/03 01:22:11;;;;;;;1.93;1.80;;;0.60;99.90;;;;;;5071808;28;20180;-77
2022/03/03 01:24:37;;;;;;;0.67;0.67;;;0.60;99.90;;;;;;5072090;28;20185;-77
2022/03/03 01:27:03;;;;;;;0.20;0.20;;;0.50;99.90;;;;;;5093703;22;20247;-74
2022/03/03 01:29:29;;;;;;;3.40;2.30;;;0.40;99.90;;;;;;5071787;28;20182;-73
2022/03/03 01:31:54;;;;;;;1.10;1.00;;;0.40;99.90;;;;;;5071141;28;20232;-74
2022/03/03 01:34:20;;;;;;;0.40;0.40;;;0.30;99.90;;;;;;5053880;28;20180;-74
2022/03/03 01:36:45;;;;;;;1.37;1.37;;;0.30;99.90;;;;;;5071797;28;20257;-74
2022/03/03 01:39:11;;;;;;;2.27;1.33;;;0.30;99.90;;;;;;5071658;28;20177;-72
2022/03/03 01:41:38;;;;;;;0.70;0.70;;;0.30;99.90;;;;;;5071127;28;20557;-73
2022/03/03 01:44:04;;;;;;;0.63;0.63;;;0.30;99.90;;;;;;5054096;28;20195;-73
2022/03/03 01:46:30;;;;;;;0.83;0.83;;;0.30;99.90;;;;;;5053949;28;20204;-73
2022/03/03 01:48:56;;;;;;;3.23;3.00;;;0.20;99.90;;;;;;5072035;28;20176;-74
2022/03/03 01:51:21;;;;;;;1.90;1.80;;;0.10;99.90;;;;;;5071977;28;20640;-72
2022/03/03 01:53:47;;;;;;;6.33;1.57;;;0.10;99.90;;;;;;5053990;28;20264;-73
2022/03/03 01:56:14;;;;;;;0.43;0.43;;;0.00;99.90;;;;;;5053879;28;20254;-73
2022/03/03 01:58:40;;;;;;;1.27;1.17;;;0.00;99.90;;;;;;5072093;28;20177;-73
2022/03/03 02:01:06;;;;;;;1.83;1.60;;;-0.10;99.90;;;;;;5054452;28;20556;-72
2022/03/03 02:03:31;;;;;;;1.80;1.73;;;-0.10;99.90;;;;;;5072161;28;20180;-73
2022/03/03 02:05:58;;;;;;;0.43;0.43;;;-0.20;99.90;;;;;;5071381;28;20207;-73
2022/03/03 02:08:24;;;;;;;0.93;0.93;;;-0.20;99.90;;;;;;5071091;28;20187;-75
2022/03/03 02:10:53;;;;;;;3.13;0.77;;;-0.30;99.90;;;;;;5041838;28;20197;-74
2022/03/03 02:13:19;;;;;;;1.73;1.60;;;-0.30;99.90;;;;;;5069065;28;20203;-74
2022/03/03 02:15:53;;;;;;;1.80;1.70;;;-0.20;99.90;;;;;;5060082;28;20201;-74
2022/03/03 02:18:19;;;;;;;2.40;1.20;;;-0.20;99.90;;;;;;5069129;28;20187;-73
2022/03/03 02:20:44;;;;;;;1.30;1.17;;;-0.20;99.90;;;;;;5070905;28;20172;-73
2022/03/03 02:23:10;;;;;;;0.50;0.50;;;-0.20;99.90;;;;;;5052736;28;20293;-73
2022/03/03 02:25:36;;;;;;;0.50;0.50;;;-0.20;99.90;;;;;;5053092;28;20183;-73
2022/03/03 02:28:02;;;;;;;3.03;2.80;;;-0.30;99.90;;;;;;5053252;28;20176;-73
2022/03/03 02:30:27;;;;;;;1.23;0.93;;;-0.30;99.90;;;;;;5071289;28;20180;-73
2022/03/03 02:32:53;;;;;;;0.73;0.73;;;-0.30;99.90;;;;;;5070855;28;20187;-74
2022/03/03 02:35:19;;;;;;;1.53;1.43;;;-0.40;99.90;;;;;;5071291;28;20173;-74
2022/03/03 02:37:46;;;;;;;1.10;1.10;;;-0.40;99.90;;;;;;5070989;28;20577;-74
2022/03/03 02:40:20;;;;;;;0.93;0.60;;;-0.40;99.90;;;;;;5053173;28;20177;-73
2022/03/03 02:42:52;;;;;;;0.10;0.10;;;-0.40;99.90;;;;;;5071071;28;20179;-73
2022/03/03 02:45:18;;;;;;;2.00;1.20;;;-0.40;99.90;;;;;;5071159;28;20177;-74
2022/03/03 02:47:46;;;;;;;0.20;0.20;;;-0.40;99.90;;;;;;5071500;28;20228;-74
2022/03/03 02:50:13;;;;;;;1.40;1.40;;;-0.50;99.90;;;;;;5070792;28;20188;-73
2022/03/03 02:52:39;;;;;;;2.03;1.93;;;-0.50;99.90;;;;;;5070399;28;20232;-74
2022/03/03 02:55:06;;;;;;;0.27;0.27;;;-0.60;99.90;;;;;;5074393;28;20540;-73
2022/03/03 03:00:16;;;;;;;0.30;0.30;;;-0.60;99.90;;;;;;5075134;28;20206;-73
2022/03/03 03:02:42;;;;;;;4.00;1.80;;;-0.70;99.90;;;;;;5074178;28;20184;-74
2022/03/03 03:05:08;;;;;;;1.50;1.23;;;-0.60;99.90;;;;;;5056748;28;20655;-74
2022/03/03 03:07:34;;;;;;;0.23;0.23;;;-0.70;99.90;;;;;;5074896;28;20254;-75
2022/03/03 03:10:00;;;;;;;1.60;1.20;;;-0.70;99.90;;;;;;5070860;28;20727;-72
2022/03/03 03:12:25;;;;;;;10.00;2.00;;;-0.70;99.90;;;;;;5064561;28;20287;-74
2022/03/03 03:14:51;;;;;;;3.17;2.80;;;-0.70;99.90;;;;;;5074659;28;20647;-74
2022/03/03 03:17:16;;;;;;;1.03;0.97;;;-0.70;99.90;;;;;;5073071;28;20201;-74
2022/03/03 03:19:42;;;;;;;4.90;4.13;;;-0.70;99.90;;;;;;5074375;28;20624;-74
2022/03/03 03:22:07;;;;;;;0.33;0.33;;;-0.80;99.90;;;;;;5056393;28;20180;-75
2022/03/03 03:24:33;;;;;;;0.50;0.50;;;-0.80;99.90;;;;;;5056533;28;20567;-75
2022/03/03 03:26:58;;;;;;;0.50;0.50;;;-0.80;99.90;;;;;;5074270;28;20247;-75
2022/03/03 03:29:24;;;;;;;1.43;1.37;;;-0.80;99.90;;;;;;5055872;28;20233;-75
2022/03/03 03:31:49;;;;;;;1.83;1.73;;;-0.80;99.90;;;;;;5073654;28;20246;-75
2022/03/03 03:34:15;;;;;;;1.73;1.60;;;-0.80;99.90;;;;;;5056181;28;20177;-76
2022/03/03 03:36:40;;;;;;;3.83;2.73;;;-0.80;99.90;;;;;;5074342;28;20196;-75
2022/03/03 03:39:06;;;;;;;5.63;3.60;;;-0.80;99.90;;;;;;5074259;28;20180;-75
2022/03/03 03:41:31;;;;;;;0.87;0.87;;;-0.70;99.90;;;;;;5073657;28;20271;-75
2022/03/03 03:43:57;;;;;;;0.97;0.97;;;-0.70;99.90;;;;;;5073791;28;20208;-74
2022/03/03 03:46:22;;;;;;;1.30;1.30;;;-0.80;99.90;;;;;;5073891;28;20751;-72
2022/03/03 03:48:48;;;;;;;0.30;0.30;;;-0.90;99.90;;;;;;5073928;28;20238;-74
2022/03/03 03:51:14;;;;;;;0.53;0.53;;;-0.90;99.90;;;;;;5073926;28;20205;-75
2022/03/03 03:53:39;;;;;;;0.80;0.80;;;-1.00;99.90;;;;;;5055562;28;20598;-74
2022/03/03 03:56:05;;;;;;;1.57;1.23;;;-1.00;99.90;;;;;;5073907;28;20192;-74
2022/03/03 03:58:31;;;;;;;1.20;1.20;;;-1.10;99.90;;;;;;5073985;28;20177;-74
2022/03/03 04:00:56;;;;;;;0.40;0.40;;;-1.10;99.90;;;;;;5073616;28;20188;-75
2022/03/03 04:03:22;;;;;;;0.73;0.73;;;-1.10;99.90;;;;;;5055416;28;20183;-74
2022/03/03 04:05:47;;;;;;;0.40;0.40;;;-1.10;99.90;;;;;;5055012;28;20249;-74
2022/03/03 04:08:14;;;;;;;1.50;1.40;;;-1.00;99.90;;;;;;5055965;28;20180;-74
2022/03/03 04:10:39;;;;;;;0.90;0.90;;;-0.90;99.90;;;;;;5064239;28;20169;-74
2022/03/03 04:13:05;;;;;;;1.43;1.37;;;-0.90;99.90;;;;;;5069320;28;20267;-74
2022/03/03 04:15:31;;;;;;;1.80;1.70;;;-0.90;99.90;;;;;;5055443;28;20184;-72
2022/03/03 04:17:56;;;;;;;1.30;1.20;;;-0.90;99.90;;;;;;5072296;28;20184;-73
2022/03/03 04:20:23;;;;;;;0.33;0.33;;;-1.00;99.90;;;;;;5073217;28;20164;-73
2022/03/03 04:22:49;;;;;;;1.83;1.73;;;-1.10;99.90;;;;;;5055085;28;20184;-73
2022/03/03 04:25:14;;;;;;;0.53;0.53;;;-1.10;99.90;;;;;;5055251;28;20663;-73
2022/03/03 04:27:40;;;;;;;1.87;1.70;;;-1.00;99.90;;;;;;5073299;28;20238;-75
2022/03/03 04:30:10;;;;;;;1.17;1.07;;;-0.90;99.90;;;;;;5073424;28;20188;-73
2022/03/03 04:32:37;;;;;;;0.53;0.53;;;-0.90;99.90;;;;;;5054973;28;20587;-73
2022/03/03 04:35:03;;;;;;;1.13;1.13;;;-0.90;99.90;;;;;;5073398;28;20609;-73
2022/03/03 04:37:29;;;;;;;1.60;1.47;;;-0.80;99.90;;;;;;5073313;28;20216;-73
2022/03/03 04:39:55;;;;;;;1.77;1.43;;;-0.90;99.90;;;;;;5056978;28;20272;-73
2022/03/03 04:42:20;;;;;;;1.60;1.53;;;-0.90;99.90;;;;;;5073348;28;20296;-73
2022/03/03 04:44:46;;;;;;;0.97;0.97;;;-1.00;99.90;;;;;;5073431;28;20241;-75
2022/03/03 04:47:11;;;;;;;1.60;1.53;;;-0.90;99.90;;;;;;5072801;28;20228;-75
2022/03/03 04:49:37;;;;;;;5.27;2.77;;;-1.00;99.90;;;;;;5054658;28;20528;-75
2022/03/03 04:52:03;;;;;;;1.50;1.50;;;-0.90;99.90;;;;;;5054475;28;20553;-76
2022/03/03 04:54:28;;;;;;;0.53;0.53;;;-1.00;99.90;;;;;;5054970;28;20532;-73
2022/03/03 04:56:55;;;;;;;2.63;1.90;;;-1.10;99.90;;;;;;5054597;28;20259;-75
2022/03/03 04:59:23;;;;;;;0.93;0.90;;;-1.20;99.90;;;;;;5072317;28;20172;-75
2022/03/03 05:01:49;;;;;;;0.73;0.73;;;-1.20;99.90;;;;;;5072234;28;20188;-75
2022/03/03 05:04:15;;;;;;;1.17;1.10;;;-1.20;99.90;;;;;;5072309;28;20548;-75
2022/03/03 05:06:40;;;;;;;0.20;0.20;;;-1.20;99.90;;;;;;5072329;28;20207;-74
2022/03/03 05:09:06;;;;;;;1.17;1.17;;;-1.20;99.90;;;;;;5072095;28;20192;-74
2022/03/03 05:11:31;;;;;;;1.53;1.50;;;-1.20;99.90;;;;;;5040519;28;20199;-75
2022/03/03 05:13:57;;;;;;;2.50;2.40;;;-1.20;99.90;;;;;;5054531;28;20184;-75
2022/03/03 05:16:23;;;;;;;0.60;0.60;;;-1.30;99.90;;;;;;5070266;28;20569;-75
2022/03/03 05:18:48;;;;;;;2.20;1.93;;;-1.30;99.90;;;;;;5054166;28;20199;-76
2022/03/03 05:21:14;;;;;;;0.33;0.33;;;-1.30;99.90;;;;;;5071858;28;20207;-75
2022/03/03 05:23:39;;;;;;;0.20;0.20;;;-1.30;99.90;;;;;;5071584;28;20272;-77
2022/03/03 05:26:05;;;;;;;0.73;0.73;;;-1.30;99.90;;;;;;5071992;28;20227;-74
2022/03/03 05:28:30;;;;;;;0.20;0.20;;;-1.40;99.90;;;;;;5072009;28;20183;-75
2022/03/03 05:30:56;;;;;;;2.47;2.13;;;-1.40;99.90;;;;;;5071600;28;20215;-77
2022/03/03 05:33:21;;;;;;;3.30;1.87;;;-1.40;99.90;;;;;;5071560;28;20175;-75
2022/03/03 05:35:51;;;;;;;0.13;0.13;;;-1.40;99.90;;;;;;5054213;28;20237;-75
2022/03/03 05:38:17;;;;;;;0.33;0.33;;;-1.40;99.90;;;;;;5054469;28;20191;-74
2022/03/03 05:40:43;;;;;;;1.13;1.13;;;-1.50;99.90;;;;;;5053570;28;20662;-75
2022/03/03 05:43:11;;;;;;;0.47;0.47;;;-1.50;99.90;;;;;;5071213;28;20187;-75
2022/03/03 05:45:38;;;;;;;6.30;4.43;;;-1.30;99.90;;;;;;5071763;28;20667;-74
2022/03/03 05:48:04;;;;;;;0.20;0.20;;;-1.30;99.90;;;;;;5071653;28;20242;-74
2022/03/03 05:50:29;;;;;;;0.20;0.20;;;-1.30;99.90;;;;;;5054577;28;20179;-74
2022/03/03 05:52:59;;;;;;;0.47;0.47;;;-1.30;99.90;;;;;;5071475;28;20740;-74
2022/03/03 05:55:25;;;;;;;0.60;0.57;;;-1.30;99.90;;;;;;5071489;28;20179;-74
2022/03/03 05:57:54;;;;;;;0.33;0.33;;;-1.20;99.90;;;;;;5053397;28;20263;-77
2022/03/03 06:00:21;;;;;;;6.40;2.47;;;-1.30;99.90;;;;;;5071301;28;20210;-75
2022/03/03 06:02:54;;;;;;;1.47;1.47;;;-1.40;99.90;;;;;;5072356;28;20236;-77
2022/03/03 06:05:27;;;;;;;1.80;1.70;;;-1.40;99.90;;;;;;5072585;28;20183;-74
2022/03/03 06:08:01;;;;;;;1.40;1.33;;;-1.40;99.90;;;;;;5071454;28;20188;-75
2022/03/03 06:10:32;;;;;;;7.73;1.30;;;-1.40;99.90;;;;;;5045523;28;20236;-75
2022/03/03 06:13:12;;;;;;;2.23;2.13;;;-1.40;99.90;;;;;;5066923;28;20204;-73
2022/03/03 06:15:38;;;;;;;1.10;0.63;;;-1.40;99.90;;;;;;5071443;28;20176;-75
2022/03/03 06:18:05;;;;;;;0.57;0.57;;;-1.50;99.90;;;;;;5052170;28;20233;-74
2022/03/03 06:20:34;;;;;;;1.83;1.17;;;-1.50;99.90;;;;;;5054113;28;20248;-74
2022/03/03 06:22:59;;;;;;;0.10;0.10;;;-1.60;99.90;;;;;;5070979;28;20195;-74
2022/03/03 06:25:25;;;;;;;0.63;0.63;;;-1.50;99.90;;;;;;5071246;28;20180;-73
2022/03/03 06:27:51;;;;;;;1.53;1.43;;;-1.50;99.90;;;;;;5073452;28;20198;-74
2022/03/03 06:30:17;;;;;;;1.40;1.33;;;-1.50;99.90;;;;;;5075745;28;20184;-74
2022/03/03 06:32:42;;;;;;;0.10;0.10;;;-1.40;99.90;;;;;;5075006;28;20207;-76
2022/03/03 06:35:08;;;;;;;0.30;0.30;;;-1.40;99.90;;;;;;5077813;28;20233;-76
2022/03/03 06:37:34;;;;;;;0.47;0.47;;;-1.50;99.90;;;;;;5076448;28;20196;-76
2022/03/03 06:39:59;;;;;;;0.20;0.20;;;-1.50;99.90;;;;;;5075493;28;20628;-76
2022/03/03 06:42:26;;;;;;;0.40;0.40;;;-1.50;99.90;;;;;;5058001;28;20180;-74
2022/03/03 06:44:53;;;;;;;0.20;0.20;;;-1.40;99.90;;;;;;5057689;28;20552;-76
2022/03/03 06:47:20;;;;;;;1.57;1.57;;;-1.40;99.90;;;;;;5075293;28;20200;-77
2022/03/03 06:49:47;;;;;;;3.20;1.90;;;-1.40;99.90;;;;;;5075315;28;20539;-77
2022/03/03 06:52:15;;;;;;;0.63;0.63;;;-1.40;99.90;;;;;;5045961;28;20207;-77
2022/03/03 06:54:44;;;;;;;2.73;2.53;;;-1.40;99.90;;;;;;5063857;28;20172;-77
2022/03/03 06:57:11;;;;;;;0.20;0.20;;;-1.40;99.90;;;;;;5056724;28;20199;-77
2022/03/03 06:59:38;;;;;;;1.03;0.50;;;-1.40;99.90;;;;;;5075280;28;20189;-77
2022/03/03 07:02:04;;;;;;;0.47;0.47;;;-1.40;99.90;;;;;;5056523;28;20190;-77
2022/03/03 07:04:33;;;;;;;5.83;2.83;;;-1.40;99.90;;;;;;5075084;28;20184;-75
2022/03/03 07:06:59;;;;;;;0.93;0.93;;;-1.40;99.90;;;;;;5074388;28;20280;-77
2022/03/03 07:09:25;;;;;;;0.63;0.63;;;-1.20;99.90;;;;;;5075229;28;20309;-77
2022/03/03 07:11:50;;;;;;;0.43;0.43;;;-1.10;99.90;;;;;;5060617;28;20287;-75
2022/03/03 07:14:16;;;;;;;0.10;0.10;;;-1.00;99.90;;;;;;5056391;28;20230;-77
2022/03/03 07:17:00;;;;;;;2.27;2.10;;;-0.90;99.90;;;;;;5073535;28;20203;-77
2022/03/03 07:19:26;;;;;;;2.53;2.33;;;-0.80;99.90;;;;;;5074569;28;20187;-77
2022/03/03 07:22:10;;;;;;;1.43;1.33;;;-0.80;99.90;;;;;;5074143;28;20549;-77
2022/03/03 07:24:44;;;;;;;0.97;0.97;;;-0.60;99.90;;;;;;5074264;28;20172;-77
2022/03/03 07:27:17;;;;;;;0.73;0.73;;;-0.50;99.90;;;;;;5078696;22;20228;-76
2022/03/03 07:29:45;;;;;;;0.83;0.83;;;-0.30;99.90;;;;;;5073114;28;20179;-76
2022/03/03 07:32:13;;;;;;;1.03;1.03;;;-0.30;99.90;;;;;;5073793;28;20246;-75
2022/03/03 07:34:39;;;;;;;8.23;5.07;;;-0.10;99.90;;;;;;5055864;28;20589;-76
2022/03/03 07:37:04;;;;;;;1.23;1.17;;;0.00;99.90;;;;;;5077143;28;20285;-76
2022/03/03 07:39:39;;;;;;;1.90;1.30;;;0.20;99.90;;;;;;5073539;28;20639;-76
2022/03/03 07:42:05;;;;;;;1.60;1.50;;;0.30;99.90;;;;;;5055698;28;20180;-77
2022/03/03 07:44:32;;;;;;;1.90;1.80;;;0.40;99.90;;;;;;5074207;28;20275;-76
2022/03/03 07:46:58;;;;;;;3.07;2.77;;;0.60;99.90;;;;;;5073489;28;20201;-75
2022/03/03 07:49:25;;;;;;;0.93;0.93;;;0.70;99.90;;;;;;5074034;28;20188;-76
2022/03/03 07:51:52;;;;;;;1.03;1.03;;;0.80;99.90;;;;;;5073062;28;20208;-77
2022/03/03 07:54:17;;;;;;;2.53;2.43;;;0.90;99.90;;;;;;5073544;28;20286;-76
2022/03/03 07:56:48;;;;;;;1.60;1.50;;;1.00;99.90;;;;;;5073563;28;20280;-76
2022/03/03 07:59:17;;;;;;;0.47;0.47;;;1.20;99.90;;;;;;5073691;28;20239;-76
2022/03/03 08:01:44;;;;;;;0.40;0.40;;;1.30;99.90;;;;;;5073147;28;20195;-76
2022/03/03 08:04:14;;;;;;;1.97;1.83;;;1.40;99.90;;;;;;5073597;28;20199;-77
2022/03/03 08:06:40;;;;;;;0.93;0.93;;;1.60;99.90;;;;;;5055396;28;20203;-76
2022/03/03 08:09:06;;;;;;;0.57;0.50;;;1.70;99.90;;;;;;5073431;28;20647;-77
2022/03/03 08:11:34;;;;;;;0.43;0.43;;;1.90;99.90;;;;;;5041408;28;20200;-77
2022/03/03 08:14:00;;;;;;;2.53;2.33;;;2.10;99.90;;;;;;5073214;28;20174;-76
2022/03/03 08:16:26;;;;;;;5.63;2.97;;;2.20;99.90;;;;;;5054801;28;20202;-77
2022/03/03 08:18:55;;;;;;;1.03;1.03;;;2.40;99.90;;;;;;5055287;28;20268;-76
2022/03/03 08:21:21;;;;;;;1.80;1.70;;;2.50;99.90;;;;;;5072896;28;20185;-76
2022/03/03 08:23:47;;;;;;;2.03;1.90;;;2.70;99.90;;;;;;5073100;28;20707;-76
2022/03/03 08:26:12;;;;;;;1.30;1.30;;;2.90;99.90;;;;;;5072896;28;20208;-77
2022/03/03 08:28:39;;;;;;;1.13;1.00;;;3.10;99.90;;;;;;5072913;28;20555;-77
2022/03/03 08:31:06;;;;;;;3.73;1.97;;;3.10;99.90;;;;;;5073032;28;20294;-76
2022/03/03 08:33:40;;;;;;;2.43;1.03;;;3.20;99.90;;;;;;5072736;28;20195;-77
2022/03/03 08:36:15;;;;;;;0.73;0.73;;;3.40;99.90;;;;;;5072930;28;20179;-77
2022/03/03 08:38:46;;;;;;;3.40;3.20;;;3.50;99.90;;;;;;5072825;28;20179;-77
2022/03/03 08:41:15;;;;;;;2.40;2.30;;;3.60;99.90;;;;;;5072685;28;20188;-76
2022/03/03 08:43:43;;;;;;;2.63;2.43;;;3.60;99.90;;;;;;5072560;28;20785;-76
2022/03/03 08:46:09;;;;;;;3.37;1.60;;;3.90;99.90;;;;;;5072694;28;20265;-76
2022/03/03 08:48:35;;;;;;;2.87;2.07;;;3.90;99.90;;;;;;5072763;28;20179;-75
2022/03/03 08:51:02;;;;;;;4.17;3.13;;;3.90;99.90;;;;;;5071363;28;20172;-74
2022/03/03 08:53:28;;;;;;;2.47;1.57;;;4.10;99.90;;;;;;5072102;28;20669;-76
2022/03/03 08:55:54;;;;;;;2.13;1.97;;;4.30;99.90;;;;;;5072585;28;20260;-76
2022/03/03 08:58:21;;;;;;;1.10;1.03;;;4.40;99.90;;;;;;5054525;28;20176;-76
2022/03/03 09:00:48;;;;;;;2.50;2.33;;;4.50;99.90;;;;;;5072451;28;20655;-76
2022/03/03 09:03:24;;;;;;;0.63;0.63;;;4.50;99.90;;;;;;5072115;28;20262;-76
2022/03/03 09:05:50;;;;;;;3.80;1.97;;;4.70;99.90;;;;;;5072438;28;20164;-77
2022/03/03 09:08:16;;;;;;;2.07;1.97;;;4.80;99.90;;;;;;5071896;28;20195;-76
2022/03/03 09:10:42;;;;;;;2.27;2.07;;;4.80;99.90;;;;;;5062561;28;20220;-76
2022/03/03 09:13:07;;;;;;;13.77;2.10;;;4.90;99.90;;;;;;5068046;28;20298;-76
2022/03/03 09:15:33;;;;;;;11.43;3.13;;;5.00;99.90;;;;;;5054170;28;20179;-76
2022/03/03 09:18:00;;;;;;;1.97;1.87;;;5.10;99.90;;;;;;5070864;28;20284;-76
2022/03/03 09:20:26;;;;;;;1.43;1.43;;;5.30;99.90;;;;;;5054064;28;20176;-75
2022/03/03 09:22:52;;;;;;;2.90;2.67;;;5.40;99.90;;;;;;5071353;28;20188;-76
2022/03/03 09:25:17;;;;;;;2.40;2.27;;;5.60;99.90;;;;;;5072241;28;20180;-76
2022/03/03 09:27:43;;;;;;;1.17;1.17;;;5.70;99.90;;;;;;5071686;28;20703;-77
2022/03/03 09:30:10;;;;;;;2.63;2.23;;;5.80;99.90;;;;;;5071907;28;20183;-76
2022/03/03 09:32:36;;;;;;;11.70;2.43;;;6.00;99.90;;;;;;5071486;28;20200;-78
2022/03/03 09:35:03;;;;;;;3.13;2.27;;;6.10;99.90;;;;;;5071922;28;20180;-76
2022/03/03 09:37:29;;;;;;;5.00;4.60;;;6.20;99.90;;;;;;5053637;28;20196;-76
2022/03/03 09:39:54;;;;;;;1.40;0.97;;;6.40;99.90;;;;;;5071755;28;20230;-77
2022/03/03 09:42:20;;;;;;;0.70;0.70;;;6.40;99.90;;;;;;5071790;28;20205;-78
2022/03/03 09:44:46;;;;;;;3.37;2.13;;;6.40;99.90;;;;;;5071560;28;20467;-76
2022/03/03 09:47:14;;;;;;;1.23;1.20;;;6.60;99.90;;;;;;5071712;28;20235;-76
2022/03/03 09:49:40;;;;;;;0.83;0.83;;;6.70;99.90;;;;;;5071569;28;20180;-77
2022/03/03 09:52:18;;;;;;;2.70;2.27;;;6.80;99.90;;;;;;5071096;28;20207;-76
2022/03/03 09:54:47;;;;;;;4.20;2.50;;;6.80;99.90;;;;;;5053675;28;20328;-77
2022/03/03 09:57:14;;;;;;;3.40;2.37;;;7.10;99.90;;;;;;5071441;28;20196;-77
2022/03/03 09:59:40;;;;;;;1.00;1.00;;;7.10;99.90;;;;;;5071703;28;20168;-77
2022/03/03 10:02:06;;;;;;;4.70;4.27;;;7.20;99.90;;;;;;5070802;28;20180;-77
2022/03/03 10:04:32;;;;;;;3.80;2.53;;;7.30;99.90;;;;;;5071424;28;20180;-78
2022/03/03 10:07:07;;;;;;;0.97;0.97;;;7.40;99.90;;;;;;5071321;28;20250;-78
2022/03/03 10:09:33;;;;;;;6.50;2.50;;;7.30;99.90;;;;;;5071400;28;20184;-77
2022/03/03 10:12:03;;;;;;;1.70;1.63;;;7.50;99.90;;;;;;5040065;28;20192;-76
2022/03/03 10:14:38;;;;;;;2.47;2.37;;;7.60;99.90;;;;;;5071463;28;20286;-76
2022/03/03 10:17:05;;;;;;;1.83;1.47;;;7.60;99.90;;;;;;5070596;28;20227;-77
2022/03/03 10:19:32;;;;;;;2.10;1.90;;;7.90;99.90;;;;;;5071391;28;20184;-77
2022/03/03 10:21:58;;;;;;;2.30;2.17;;;8.10;99.90;;;;;;5070957;28;20234;-77
2022/03/03 10:24:29;;;;;;;1.63;1.47;;;8.30;99.90;;;;;;5071564;28;20183;-76
2022/03/03 10:27:06;;;;;;;1.50;1.40;;;8.40;99.90;;;;;;5053091;28;20220;-76
2022/03/03 10:29:33;;;;;;;2.73;2.53;;;8.50;99.90;;;;;;5067630;28;20266;-77
2022/03/03 10:31:59;;;;;;;4.33;2.63;;;8.50;99.90;;;;;;5061752;28;20208;-76
2022/03/03 10:34:33;;;;;;;4.23;3.10;;;8.60;99.90;;;;;;5071112;28;20528;-76
2022/03/03 10:37:03;;;;;;;2.33;1.90;;;8.60;99.90;;;;;;5053267;28;20264;-77
2022/03/03 10:39:39;;;;;;;2.73;2.63;;;8.80;99.90;;;;;;5071126;28;20187;-77
2022/03/03 10:42:16;;;;;;;3.30;2.73;;;9.00;99.90;;;;;;5070958;28;20237;-77
2022/03/03 10:44:43;;;;;;;3.07;2.43;;;9.30;99.90;;;;;;5053210;28;20188;-77
2022/03/03 10:47:14;;;;;;;3.77;3.40;;;9.60;99.90;;;;;;5071073;28;20239;-77
2022/03/03 10:49:42;;;;;;;2.00;1.90;;;9.80;99.90;;;;;;5071121;28;20259;-77
2022/03/03 10:52:09;;;;;;;3.60;3.40;;;9.90;99.90;;;;;;5070645;28;20196;-77
2022/03/03 10:54:48;;;;;;;4.47;2.73;;;10.10;99.90;;;;;;5071112;28;20196;-77
2022/03/03 10:57:40;;;;;;;2.73;2.53;;;10.60;99.90;;;;;;5071297;28;20201;-76
2022/03/03 11:00:13;;;;;;;9.07;5.87;;;11.00;99.90;;;;;;5070770;28;20184;-77
2022/03/03 11:02:43;;;;;;;3.93;2.50;;;11.30;99.90;;;;;;5052436;28;20189;-77
2022/03/03 11:05:10;;;;;;;1.93;1.70;;;11.30;99.90;;;;;;5057395;28;20184;-76
2022/03/03 11:07:38;;;;;;;2.73;1.90;;;11.50;99.90;;;;;;5052725;28;20204;-77
2022/03/03 11:10:05;;;;;;;5.37;1.97;;;12.00;99.90;;;;;;5048432;28;20652;-76
2022/03/03 11:12:31;;;;;;;2.77;2.50;;;12.10;99.90;;;;;;5063637;28;20683;-79
2022/03/03 11:14:57;;;;;;;1.90;1.80;;;11.70;99.90;;;;;;5074543;28;20567;-77
2022/03/03 11:17:23;;;;;;;2.13;2.03;;;11.80;99.90;;;;;;5073725;28;20203;-77
2022/03/03 11:19:58;;;;;;;2.30;2.10;;;11.80;99.90;;;;;;5074290;28;20272;-77
2022/03/03 11:22:23;;;;;;;4.07;3.70;;;12.10;99.90;;;;;;5073883;28;20182;-77
2022/03/03 11:24:50;;;;;;;2.93;2.63;;;12.40;99.90;;;;;;5074180;28;20277;-78
2022/03/03 11:27:16;;;;;;;19.07;5.47;;;12.90;99.90;;;;;;5056664;28;20221;-76
2022/03/03 11:29:41;;;;;;;3.77;3.47;;;12.70;99.90;;;;;;5073991;28;20186;-76
2022/03/03 11:32:12;;;;;;;5.90;3.23;;;13.40;99.90;;;;;;5060911;28;20244;-76
2022/03/03 11:34:37;;;;;;;6.97;4.13;;;14.10;99.90;;;;;;5047439;28;20203;-76
2022/03/03 11:37:15;;;;;;;3.93;2.37;;;14.50;99.90;;;;;;5074303;28;20235;-76
2022/03/03 11:39:49;;;;;;;7.03;6.00;;;15.40;99.90;;;;;;5074182;28;20264;-76
2022/03/03 11:42:20;;;;;;;4.00;2.17;;;14.50;99.90;;;;;;5073622;28;20604;-77
2022/03/03 11:44:46;;;;;;;2.37;1.60;;;14.70;99.90;;;;;;5055778;28;20184;-77
2022/03/03 11:47:22;;;;;;;3.73;2.60;;;14.30;99.90;;;;;;5055608;28;20204;-77
2022/03/03 11:50:12;;;;;;;2.13;2.03;;;14.80;99.30;;;;;;5074003;28;20290;-77
2022/03/03 11:52:39;;;;;;;3.73;2.93;;;15.20;98.50;;;;;;5048247;28;20238;-77
2022/03/03 11:55:38;;;;;;;5.47;3.80;;;16.70;96.20;;;;;;5073521;28;20715;-78
2022/03/03 11:58:08;;;;;;;4.23;3.30;;;17.90;90.90;;;;;;5073503;28;20212;-77
2022/03/03 12:00:40;;;;;;;2.67;2.50;;;18.50;71.90;;;;;;5073538;28;20195;-75
2022/03/03 12:03:08;;;;;;;2.60;2.37;;;18.50;71.80;;;;;;5073100;28;20271;-76
2022/03/03 12:05:45;;;;;;;4.55;3.97;;;18.20;69.90;;;;;;5072707;28;20436;-77
2022/03/03 12:08:14;;;;;;;5.90;3.53;;;18.40;71.90;;;;;;5055490;28;20201;-77
2022/03/03 12:11:00;;;;;;;3.77;3.27;;;19.00;65.80;;;;;;5064050;28;20189;-77
2022/03/03 12:13:45;;;;;;;10.13;3.10;;;18.20;64.80;;;;;;5055057;28;20187;-77
2022/03/03 12:16:17;;;;;;;3.40;2.87;;;18.50;66.70;;;;;;5060381;28;20163;-77
2022/03/03 12:18:56;;;;;;;3.63;2.50;;;19.90;59.70;;;;;;5073340;28;20190;-78
2022/03/03 12:21:41;;;;;;;7.07;3.33;;;20.40;56.20;;;;;;5073034;28;20245;-78
2022/03/03 12:24:13;;;;;;;7.93;4.70;;;19.50;57.10;;;;;;5073030;28;20614;-78
2022/03/03 12:26:56;;;;;;;6.53;2.93;;;18.10;58.30;;;;;;5072846;28;20218;-77
2022/03/03 12:29:48;;;;;;;2.67;2.50;;;18.10;60.00;;;;;;5069569;28;20211;-77
2022/03/03 12:32:35;;;;;;;6.67;2.60;;;17.80;57.60;;;;;;5048049;28;20204;-76
2022/03/03 12:35:35;;;;;;;4.33;3.73;;;18.40;57.10;;;;;;5073040;28;20182;-76
2022/03/03 12:38:02;;;;;;;4.10;3.70;;;18.40;58.10;;;;;;5028182;28;20260;-76
2022/03/03 12:40:29;;;;;;;3.93;2.20;;;18.80;59.90;;;;;;5054828;28;20179;-77
2022/03/03 12:42:55;;;;;;;1.83;1.67;;;19.80;54.20;;;;;;5072445;28;20666;-77
2022/03/03 12:45:22;;;;;;;3.30;3.00;;;20.60;50.00;;;;;;5072702;28;20180;-76
2022/03/03 12:47:51;;;;;;;8.63;3.70;;;20.60;49.20;;;;;;5072659;28;20279;-77
2022/03/03 12:50:26;;;;;;;4.20;3.80;;;20.50;48.50;;;;;;5072584;28;20186;-76
2022/03/03 12:52:56;;;;;;;2.07;1.93;;;20.30;49.10;;;;;;5072359;28;20207;-76
2022/03/03 12:55:29;;;;;;;6.67;3.27;;;19.60;46.00;;;;;;5072616;28;20693;-77
2022/03/03 12:57:56;;;;;;;2.17;2.07;;;19.70;48.70;;;;;;5073040;28;20275;-77